# Tabular Observed and Forecast Hydrograph Information
#
# Location: Santa Clara River - Piru (SCPC1)
#
# File Generation Time: 05/07/2026 at 07:38 AM PDT
# Data Interval: 1 Hour
#
# Most Recent Date & Time of Maximum Observed: 05/05/2026 at 06:00 PM PDT
# Maximum Observed Stage: 2.41 Feet
# Maximum Observed Flow: 226 cfs
#
# Earliest Date & Time of Maximum Forecast: 05/07/2026 at 08:00 AM PDT
# Maximum Forecast Stage: 2.34 Feet
# Maximum Forecast Flow: 214 cfs
#
# OBSERVED
#
# Date & Time (Local) Stage (Feet) Flow (cfs) Trend Observed Status
# ---------------------------------------------------------------------------------
05/02/2026 07 AM PDT 2.31 209 Normal
05/02/2026 08 AM PDT 2.32 210 + Normal
05/02/2026 09 AM PDT 2.28 204 - Normal
05/02/2026 10 AM PDT 2.39 222 + Normal
05/02/2026 11 AM PDT 2.32 210 - Normal
05/02/2026 12 PM PDT 2.29 205 - Normal
05/02/2026 01 PM PDT 2.32 210 + Normal
05/02/2026 02 PM PDT 2.37 219 + Normal
05/02/2026 03 PM PDT 2.36 217 - Normal
05/02/2026 04 PM PDT 2.28 204 - Normal
05/02/2026 05 PM PDT 2.29 205 + Normal
05/02/2026 06 PM PDT 2.34 214 + Normal
05/02/2026 07 PM PDT 2.28 204 - Normal
05/02/2026 08 PM PDT 2.31 209 + Normal
05/02/2026 09 PM PDT 2.30 207 - Normal
05/02/2026 10 PM PDT 2.28 204 - Normal
05/02/2026 11 PM PDT 2.25 199 - Normal
05/03/2026 12 AM PDT 2.31 209 + Normal
05/03/2026 01 AM PDT 2.29 205 - Normal
05/03/2026 02 AM PDT 2.30 207 + Normal
05/03/2026 03 AM PDT 2.31 209 + Normal
05/03/2026 04 AM PDT 2.30 207 - Normal
05/03/2026 05 AM PDT 2.27 202 - Normal
05/03/2026 06 AM PDT 2.31 209 + Normal
05/03/2026 07 AM PDT 2.33 212 + Normal
05/03/2026 08 AM PDT 2.24 197 - Normal
05/03/2026 09 AM PDT 2.27 202 + Normal
05/03/2026 10 AM PDT 2.31 209 + Normal
05/03/2026 11 AM PDT 2.24 197 - Normal
05/03/2026 12 PM PDT 2.29 205 + Normal
05/03/2026 01 PM PDT 2.29 205 0 Normal
05/03/2026 02 PM PDT 2.26 200 - Normal
05/03/2026 03 PM PDT 2.30 207 + Normal
05/03/2026 04 PM PDT 2.28 204 - Normal
05/03/2026 05 PM PDT 2.31 209 + Normal
05/03/2026 06 PM PDT 2.33 212 + Normal
05/03/2026 07 PM PDT 2.35 215 + Normal
05/03/2026 08 PM PDT 2.37 219 + Normal
05/03/2026 09 PM PDT 2.25 199 - Normal
05/03/2026 10 PM PDT 2.33 212 + Normal
05/03/2026 11 PM PDT 2.38 220 + Normal
05/04/2026 12 AM PDT 2.31 209 - Normal
05/04/2026 01 AM PDT 2.29 205 - Normal
05/04/2026 02 AM PDT 2.36 217 + Normal
05/04/2026 03 AM PDT 2.37 219 + Normal
05/04/2026 04 AM PDT 2.27 202 - Normal
05/04/2026 05 AM PDT 2.34 214 + Normal
05/04/2026 06 AM PDT 2.34 214 0 Normal
05/04/2026 07 AM PDT 2.32 210 - Normal
05/04/2026 08 AM PDT 2.29 205 - Normal
05/04/2026 09 AM PDT 2.35 215 + Normal
05/04/2026 10 AM PDT 2.29 205 - Normal
05/04/2026 11 AM PDT 2.31 209 + Normal
05/04/2026 12 PM PDT 2.29 205 - Normal
05/04/2026 01 PM PDT 2.29 205 0 Normal
05/04/2026 02 PM PDT 2.30 207 + Normal
05/04/2026 03 PM PDT 2.31 209 + Normal
05/04/2026 04 PM PDT 2.33 212 + Normal
05/04/2026 05 PM PDT 2.31 209 - Normal
05/04/2026 06 PM PDT 2.36 217 + Normal
05/04/2026 07 PM PDT 2.31 209 - Normal
05/04/2026 08 PM PDT 2.30 207 - Normal
05/04/2026 09 PM PDT 2.32 210 + Normal
05/04/2026 10 PM PDT 2.34 214 + Normal
05/04/2026 11 PM PDT 2.30 207 - Normal
05/05/2026 12 AM PDT 2.37 219 + Normal
05/05/2026 01 AM PDT 2.33 212 - Normal
05/05/2026 02 AM PDT 2.34 214 + Normal
05/05/2026 03 AM PDT 2.33 212 - Normal
05/05/2026 04 AM PDT 2.29 205 - Normal
05/05/2026 05 AM PDT 2.33 212 + Normal
05/05/2026 06 AM PDT 2.35 215 + Normal
05/05/2026 07 AM PDT 2.37 219 + Normal
05/05/2026 08 AM PDT 2.33 212 - Normal
05/05/2026 09 AM PDT 2.33 212 0 Normal
05/05/2026 10 AM PDT 2.36 217 + Normal
05/05/2026 11 AM PDT 2.34 214 - Normal
05/05/2026 12 PM PDT 2.35 215 + Normal
05/05/2026 01 PM PDT 2.38 220 + Normal
05/05/2026 02 PM PDT 2.35 215 - Normal
05/05/2026 03 PM PDT 2.32 210 - Normal
05/05/2026 04 PM PDT 2.35 215 + Normal
05/05/2026 05 PM PDT 2.34 214 - Normal
05/05/2026 06 PM PDT 2.41 226 + Normal
05/05/2026 07 PM PDT 2.32 210 - Normal
05/05/2026 08 PM PDT 2.35 215 + Normal
05/05/2026 09 PM PDT 2.34 214 - Normal
05/05/2026 10 PM PDT 2.32 210 - Normal
05/05/2026 11 PM PDT 2.32 210 0 Normal
05/06/2026 12 AM PDT 2.33 212 + Normal
05/06/2026 01 AM PDT 2.33 212 0 Normal
05/06/2026 02 AM PDT 2.32 210 - Normal
05/06/2026 03 AM PDT 2.31 209 - Normal
05/06/2026 04 AM PDT 2.38 220 + Normal
05/06/2026 05 AM PDT 2.38 220 0 Normal
05/06/2026 06 AM PDT 2.36 217 - Normal
05/06/2026 07 AM PDT 2.38 220 + Normal
05/06/2026 08 AM PDT 2.35 215 - Normal
05/06/2026 09 AM PDT 2.30 207 - Normal
05/06/2026 10 AM PDT 2.38 220 + Normal
05/06/2026 11 AM PDT 2.34 214 - Normal
05/06/2026 12 PM PDT 2.34 214 0 Normal
05/06/2026 01 PM PDT 2.35 215 + Normal
05/06/2026 02 PM PDT 2.37 219 + Normal
05/06/2026 03 PM PDT 2.36 217 - Normal
05/06/2026 04 PM PDT 2.36 217 0 Normal
05/06/2026 05 PM PDT 2.32 210 - Normal
05/06/2026 06 PM PDT 2.34 214 + Normal
05/06/2026 07 PM PDT 2.34 214 0 Normal
05/06/2026 08 PM PDT 2.35 215 + Normal
05/06/2026 09 PM PDT 2.33 212 - Normal
05/06/2026 10 PM PDT 2.35 215 + Normal
05/06/2026 11 PM PDT 2.34 214 - Normal
05/07/2026 12 AM PDT 2.33 212 - Normal
05/07/2026 01 AM PDT 2.38 220 + Normal
05/07/2026 02 AM PDT 2.30 207 - Normal
05/07/2026 03 AM PDT 2.33 212 + Normal
05/07/2026 04 AM PDT 2.30 207 - Normal
05/07/2026 05 AM PDT 2.32 210 + Normal
05/07/2026 06 AM PDT 2.34 214 + Normal
05/07/2026 07 AM PDT 2.34 214 0 Normal
#
# FORECAST
#
# Date & Time (Local) Stage (Feet) Flow (cfs) Trend Forecast Status
# ---------------------------------------------------------------------------------
05/07/2026 08 AM PDT 2.34 214 Normal
05/07/2026 09 AM PDT 2.34 214 0 Normal
05/07/2026 10 AM PDT 2.34 214 0 Normal
05/07/2026 11 AM PDT 2.34 214 0 Normal
05/07/2026 12 PM PDT 2.34 214 0 Normal
05/07/2026 01 PM PDT 2.34 214 0 Normal
05/07/2026 02 PM PDT 2.34 214 0 Normal
05/07/2026 03 PM PDT 2.34 214 0 Normal
05/07/2026 04 PM PDT 2.34 214 0 Normal
05/07/2026 05 PM PDT 2.34 214 0 Normal
05/07/2026 06 PM PDT 2.34 214 0 Normal
05/07/2026 07 PM PDT 2.34 214 0 Normal
05/07/2026 08 PM PDT 2.34 214 0 Normal
05/07/2026 09 PM PDT 2.34 214 0 Normal
05/07/2026 10 PM PDT 2.34 214 0 Normal
05/07/2026 11 PM PDT 2.34 214 0 Normal
05/08/2026 12 AM PDT 2.34 214 0 Normal
05/08/2026 01 AM PDT 2.34 214 0 Normal
05/08/2026 02 AM PDT 2.34 214 0 Normal
05/08/2026 03 AM PDT 2.34 214 0 Normal
05/08/2026 04 AM PDT 2.34 214 0 Normal
05/08/2026 05 AM PDT 2.34 214 0 Normal
05/08/2026 06 AM PDT 2.34 214 0 Normal
05/08/2026 07 AM PDT 2.34 214 0 Normal
05/08/2026 08 AM PDT 2.34 214 0 Normal
05/08/2026 09 AM PDT 2.34 214 0 Normal
05/08/2026 10 AM PDT 2.34 214 0 Normal
05/08/2026 11 AM PDT 2.33 212 - Normal
05/08/2026 12 PM PDT 2.33 212 0 Normal
05/08/2026 01 PM PDT 2.33 212 0 Normal
05/08/2026 02 PM PDT 2.33 212 0 Normal
05/08/2026 03 PM PDT 2.33 212 0 Normal
05/08/2026 04 PM PDT 2.33 212 0 Normal
05/08/2026 05 PM PDT 2.33 212 0 Normal
05/08/2026 06 PM PDT 2.33 212 0 Normal
05/08/2026 07 PM PDT 2.33 212 0 Normal
05/08/2026 08 PM PDT 2.33 212 0 Normal
05/08/2026 09 PM PDT 2.33 212 0 Normal
05/08/2026 10 PM PDT 2.33 212 0 Normal
05/08/2026 11 PM PDT 2.33 212 0 Normal
05/09/2026 12 AM PDT 2.33 212 0 Normal
05/09/2026 01 AM PDT 2.33 212 0 Normal
05/09/2026 02 AM PDT 2.33 212 0 Normal
05/09/2026 03 AM PDT 2.33 212 0 Normal
05/09/2026 04 AM PDT 2.33 212 0 Normal
05/09/2026 05 AM PDT 2.33 212 0 Normal
05/09/2026 06 AM PDT 2.33 212 0 Normal
05/09/2026 07 AM PDT 2.33 212 0 Normal
05/09/2026 08 AM PDT 2.33 212 0 Normal
05/09/2026 09 AM PDT 2.33 212 0 Normal
05/09/2026 10 AM PDT 2.33 212 0 Normal
05/09/2026 11 AM PDT 2.33 212 0 Normal
05/09/2026 12 PM PDT 2.33 212 0 Normal
05/09/2026 01 PM PDT 2.33 212 0 Normal
05/09/2026 02 PM PDT 2.33 212 0 Normal
05/09/2026 03 PM PDT 2.33 212 0 Normal
05/09/2026 04 PM PDT 2.33 212 0 Normal
05/09/2026 05 PM PDT 2.33 212 0 Normal
05/09/2026 06 PM PDT 2.33 212 0 Normal
05/09/2026 07 PM PDT 2.33 212 0 Normal
05/09/2026 08 PM PDT 2.33 212 0 Normal
05/09/2026 09 PM PDT 2.33 212 0 Normal
05/09/2026 10 PM PDT 2.33 212 0 Normal
05/09/2026 11 PM PDT 2.33 212 0 Normal
05/10/2026 12 AM PDT 2.33 212 0 Normal
05/10/2026 01 AM PDT 2.33 212 0 Normal
05/10/2026 02 AM PDT 2.33 212 0 Normal
05/10/2026 03 AM PDT 2.33 212 0 Normal
05/10/2026 04 AM PDT 2.33 212 0 Normal
05/10/2026 05 AM PDT 2.33 212 0 Normal
05/10/2026 06 AM PDT 2.33 212 0 Normal
05/10/2026 07 AM PDT 2.33 212 0 Normal
05/10/2026 08 AM PDT 2.33 212 0 Normal
05/10/2026 09 AM PDT 2.33 212 0 Normal
05/10/2026 10 AM PDT 2.33 212 0 Normal
05/10/2026 11 AM PDT 2.33 212 0 Normal
05/10/2026 12 PM PDT 2.33 212 0 Normal
05/10/2026 01 PM PDT 2.33 212 0 Normal
05/10/2026 02 PM PDT 2.33 212 0 Normal
05/10/2026 03 PM PDT 2.33 212 0 Normal
05/10/2026 04 PM PDT 2.33 212 0 Normal
05/10/2026 05 PM PDT 2.33 212 0 Normal
05/10/2026 06 PM PDT 2.33 212 0 Normal
05/10/2026 07 PM PDT 2.33 212 0 Normal
05/10/2026 08 PM PDT 2.33 212 0 Normal
05/10/2026 09 PM PDT 2.33 212 0 Normal
05/10/2026 10 PM PDT 2.33 212 0 Normal
05/10/2026 11 PM PDT 2.33 212 0 Normal
05/11/2026 12 AM PDT 2.33 212 0 Normal
05/11/2026 01 AM PDT 2.33 212 0 Normal
05/11/2026 02 AM PDT 2.33 212 0 Normal
05/11/2026 03 AM PDT 2.33 212 0 Normal
05/11/2026 04 AM PDT 2.33 212 0 Normal
05/11/2026 05 AM PDT 2.33 212 0 Normal
05/11/2026 06 AM PDT 2.33 212 0 Normal
05/11/2026 07 AM PDT 2.33 212 0 Normal
05/11/2026 08 AM PDT 2.33 212 0 Normal
05/11/2026 09 AM PDT 2.33 212 0 Normal
05/11/2026 10 AM PDT 2.33 212 0 Normal
05/11/2026 11 AM PDT 2.33 212 0 Normal
05/11/2026 12 PM PDT 2.33 212 0 Normal
05/11/2026 01 PM PDT 2.33 212 0 Normal
05/11/2026 02 PM PDT 2.33 212 0 Normal
05/11/2026 03 PM PDT 2.33 212 0 Normal
05/11/2026 04 PM PDT 2.33 212 0 Normal
05/11/2026 05 PM PDT 2.33 212 0 Normal
05/11/2026 06 PM PDT 2.33 212 0 Normal
05/11/2026 07 PM PDT 2.33 212 0 Normal
05/11/2026 08 PM PDT 2.33 212 0 Normal
05/11/2026 09 PM PDT 2.33 212 0 Normal
05/11/2026 10 PM PDT 2.33 212 0 Normal
05/11/2026 11 PM PDT 2.33 212 0 Normal
05/12/2026 12 AM PDT 2.33 212 0 Normal
05/12/2026 01 AM PDT 2.33 212 0 Normal
05/12/2026 02 AM PDT 2.33 212 0 Normal
05/12/2026 03 AM PDT 2.33 212 0 Normal
05/12/2026 04 AM PDT 2.33 212 0 Normal
05/12/2026 05 AM PDT 2.33 212 0 Normal
#
# NOTE 1: Stages are rounded to the nearest hundredth (.01) of a foot.
# NOTE 2: Flows are rounded to the nearest (1) cfs.
# NOTE 3: Trends are determined using hourly change in unrounded stage and flow.
# NOTE 4: Maximum Values are determined using unrounded stage and flow.
|